sensor_id;sensor_type;location;lat;lon;timestamp;P1;durP1;ratioP1;P2;durP2;ratioP2
5416;SDS011;2731;50.754;12.990;2022-12-07T00:06:04;17.58;;;10.55;;
5416;SDS011;2731;50.754;12.990;2022-12-07T00:08:31;17.55;;;8.95;;
5416;SDS011;2731;50.754;12.990;2022-12-07T00:11:01;19.45;;;10.85;;
5416;SDS011;2731;50.754;12.990;2022-12-07T00:13:28;17.30;;;10.57;;
5416;SDS011;2731;50.754;12.990;2022-12-07T00:15:54;15.07;;;9.57;;
5416;SDS011;2731;50.754;12.990;2022-12-07T00:18:21;18.83;;;11.02;;
5416;SDS011;2731;50.754;12.990;2022-12-07T00:20:46;16.48;;;10.43;;
5416;SDS011;2731;50.754;12.990;2022-12-07T00:23:12;17.95;;;10.10;;
5416;SDS011;2731;50.754;12.990;2022-12-07T00:25:39;18.98;;;10.73;;
5416;SDS011;2731;50.754;12.990;2022-12-07T00:28:05;15.02;;;10.18;;
5416;SDS011;2731;50.754;12.990;2022-12-07T00:30:35;16.48;;;9.98;;
5416;SDS011;2731;50.754;12.990;2022-12-07T00:33:00;19.30;;;11.70;;
5416;SDS011;2731;50.754;12.990;2022-12-07T00:35:25;18.65;;;10.32;;
5416;SDS011;2731;50.754;12.990;2022-12-07T00:37:51;19.88;;;11.77;;
5416;SDS011;2731;50.754;12.990;2022-12-07T00:40:17;17.15;;;10.63;;
5416;SDS011;2731;50.754;12.990;2022-12-07T00:42:43;16.88;;;10.48;;
5416;SDS011;2731;50.754;12.990;2022-12-07T00:45:08;15.95;;;10.00;;
5416;SDS011;2731;50.754;12.990;2022-12-07T00:47:33;17.58;;;10.20;;
5416;SDS011;2731;50.754;12.990;2022-12-07T00:50:01;16.00;;;9.07;;
5416;SDS011;2731;50.754;12.990;2022-12-07T00:52:31;16.77;;;10.18;;
5416;SDS011;2731;50.754;12.990;2022-12-07T00:54:56;16.33;;;10.35;;
5416;SDS011;2731;50.754;12.990;2022-12-07T00:57:21;18.75;;;10.52;;
5416;SDS011;2731;50.754;12.990;2022-12-07T00:59:49;17.02;;;9.50;;
5416;SDS011;2731;50.754;12.990;2022-12-07T01:02:16;17.35;;;11.05;;
5416;SDS011;2731;50.754;12.990;2022-12-07T01:04:41;17.55;;;10.35;;
5416;SDS011;2731;50.754;12.990;2022-12-07T01:07:06;17.45;;;10.80;;
5416;SDS011;2731;50.754;12.990;2022-12-07T01:09:32;20.88;;;11.77;;
5416;SDS011;2731;50.754;12.990;2022-12-07T01:11:58;19.52;;;11.20;;
5416;SDS011;2731;50.754;12.990;2022-12-07T01:14:23;20.73;;;10.77;;
5416;SDS011;2731;50.754;12.990;2022-12-07T01:16:49;17.13;;;10.27;;
5416;SDS011;2731;50.754;12.990;2022-12-07T01:19:15;16.55;;;9.90;;
5416;SDS011;2731;50.754;12.990;2022-12-07T01:21:41;15.05;;;9.90;;
5416;SDS011;2731;50.754;12.990;2022-12-07T01:24:09;18.33;;;11.43;;
5416;SDS011;2731;50.754;12.990;2022-12-07T01:26:37;15.10;;;9.75;;
5416;SDS011;2731;50.754;12.990;2022-12-07T01:29:04;13.98;;;9.75;;
5416;SDS011;2731;50.754;12.990;2022-12-07T01:31:29;17.88;;;10.35;;
5416;SDS011;2731;50.754;12.990;2022-12-07T01:33:56;15.77;;;9.95;;
5416;SDS011;2731;50.754;12.990;2022-12-07T01:36:23;14.23;;;9.05;;
5416;SDS011;2731;50.754;12.990;2022-12-07T01:38:53;16.40;;;9.35;;
5416;SDS011;2731;50.754;12.990;2022-12-07T01:41:22;19.02;;;9.55;;
5416;SDS011;2731;50.754;12.990;2022-12-07T01:46:56;18.25;;;10.45;;
5416;SDS011;2731;50.754;12.990;2022-12-07T01:49:39;14.32;;;9.10;;
5416;SDS011;2731;50.754;12.990;2022-12-07T01:54:38;15.57;;;9.98;;
5416;SDS011;2731;50.754;12.990;2022-12-07T01:57:05;14.05;;;9.35;;
5416;SDS011;2731;50.754;12.990;2022-12-07T01:59:34;13.63;;;8.77;;
5416;SDS011;2731;50.754;12.990;2022-12-07T02:02:01;12.93;;;7.78;;
5416;SDS011;2731;50.754;12.990;2022-12-07T02:04:40;15.20;;;9.50;;
5416;SDS011;2731;50.754;12.990;2022-12-07T02:07:07;15.10;;;9.43;;
5416;SDS011;2731;50.754;12.990;2022-12-07T02:09:33;13.15;;;8.70;;
5416;SDS011;2731;50.754;12.990;2022-12-07T02:11:58;13.73;;;8.38;;
5416;SDS011;2731;50.754;12.990;2022-12-07T02:14:24;12.98;;;7.43;;
5416;SDS011;2731;50.754;12.990;2022-12-07T02:17:02;12.35;;;7.68;;
5416;SDS011;2731;50.754;12.990;2022-12-07T02:19:55;10.02;;;6.38;;
5416;SDS011;2731;50.754;12.990;2022-12-07T02:28:29;11.98;;;7.80;;
5416;SDS011;2731;50.754;12.990;2022-12-07T02:30:58;11.70;;;6.43;;
5416;SDS011;2731;50.754;12.990;2022-12-07T02:36:51;9.88;;;5.63;;
5416;SDS011;2731;50.754;12.990;2022-12-07T02:39:20;13.18;;;7.05;;
5416;SDS011;2731;50.754;12.990;2022-12-07T02:41:55;10.13;;;6.47;;
5416;SDS011;2731;50.754;12.990;2022-12-07T02:44:28;9.30;;;5.97;;
5416;SDS011;2731;50.754;12.990;2022-12-07T02:46:54;12.23;;;6.35;;
5416;SDS011;2731;50.754;12.990;2022-12-07T02:49:24;9.43;;;6.10;;
5416;SDS011;2731;50.754;12.990;2022-12-07T02:51:54;10.02;;;6.47;;
5416;SDS011;2731;50.754;12.990;2022-12-07T02:54:39;14.00;;;6.35;;
5416;SDS011;2731;50.754;12.990;2022-12-07T02:57:12;9.43;;;5.65;;
5416;SDS011;2731;50.754;12.990;2022-12-07T03:03:00;8.70;;;5.38;;
5416;SDS011;2731;50.754;12.990;2022-12-07T03:05:35;10.13;;;5.32;;
5416;SDS011;2731;50.754;12.990;2022-12-07T03:08:28;8.88;;;5.80;;
5416;SDS011;2731;50.754;12.990;2022-12-07T03:11:01;11.43;;;6.47;;
5416;SDS011;2731;50.754;12.990;2022-12-07T03:16:22;10.45;;;5.82;;
5416;SDS011;2731;50.754;12.990;2022-12-07T03:19:05;10.82;;;6.32;;
5416;SDS011;2731;50.754;12.990;2022-12-07T03:21:42;11.63;;;5.97;;
5416;SDS011;2731;50.754;12.990;2022-12-07T03:24:14;7.78;;;5.10;;
5416;SDS011;2731;50.754;12.990;2022-12-07T03:26:43;13.35;;;5.05;;
5416;SDS011;2731;50.754;12.990;2022-12-07T03:29:27;8.43;;;5.18;;
5416;SDS011;2731;50.754;12.990;2022-12-07T03:32:37;7.75;;;4.70;;
5416;SDS011;2731;50.754;12.990;2022-12-07T03:34:50;8.48;;;4.90;;
5416;SDS011;2731;50.754;12.990;2022-12-07T03:37:23;8.55;;;4.45;;
5416;SDS011;2731;50.754;12.990;2022-12-07T03:40:14;10.75;;;5.68;;
5416;SDS011;2731;50.754;12.990;2022-12-07T03:42:43;6.47;;;4.15;;
5416;SDS011;2731;50.754;12.990;2022-12-07T03:45:14;7.30;;;4.53;;
5416;SDS011;2731;50.754;12.990;2022-12-07T03:53:09;6.53;;;4.00;;
5416;SDS011;2731;50.754;12.990;2022-12-07T03:55:41;7.03;;;3.80;;
5416;SDS011;2731;50.754;12.990;2022-12-07T03:58:11;8.15;;;4.78;;
5416;SDS011;2731;50.754;12.990;2022-12-07T04:00:40;7.28;;;4.45;;
5416;SDS011;2731;50.754;12.990;2022-12-07T04:03:06;6.80;;;4.22;;
5416;SDS011;2731;50.754;12.990;2022-12-07T04:05:31;6.65;;;3.58;;
5416;SDS011;2731;50.754;12.990;2022-12-07T04:07:56;7.20;;;4.38;;
5416;SDS011;2731;50.754;12.990;2022-12-07T04:10:22;4.82;;;3.40;;
5416;SDS011;2731;50.754;12.990;2022-12-07T04:12:50;5.95;;;3.70;;
5416;SDS011;2731;50.754;12.990;2022-12-07T04:15:15;8.10;;;4.07;;
5416;SDS011;2731;50.754;12.990;2022-12-07T04:17:42;5.05;;;3.13;;
5416;SDS011;2731;50.754;12.990;2022-12-07T04:20:10;5.75;;;3.63;;
5416;SDS011;2731;50.754;12.990;2022-12-07T04:22:37;5.32;;;3.10;;
5416;SDS011;2731;50.754;12.990;2022-12-07T04:25:02;4.70;;;3.20;;
5416;SDS011;2731;50.754;12.990;2022-12-07T04:27:30;6.55;;;3.42;;
5416;SDS011;2731;50.754;12.990;2022-12-07T04:29:55;4.70;;;3.17;;
5416;SDS011;2731;50.754;12.990;2022-12-07T04:32:21;4.90;;;3.50;;
5416;SDS011;2731;50.754;12.990;2022-12-07T04:34:47;5.57;;;3.45;;
5416;SDS011;2731;50.754;12.990;2022-12-07T04:37:13;5.40;;;3.47;;
5416;SDS011;2731;50.754;12.990;2022-12-07T04:39:40;5.63;;;3.25;;
5416;SDS011;2731;50.754;12.990;2022-12-07T04:42:05;4.90;;;2.80;;
5416;SDS011;2731;50.754;12.990;2022-12-07T04:44:31;4.20;;;2.75;;
5416;SDS011;2731;50.754;12.990;2022-12-07T04:46:58;4.47;;;2.90;;
5416;SDS011;2731;50.754;12.990;2022-12-07T04:49:24;4.38;;;2.63;;
5416;SDS011;2731;50.754;12.990;2022-12-07T04:51:51;6.15;;;3.20;;
5416;SDS011;2731;50.754;12.990;2022-12-07T04:54:18;4.65;;;2.90;;
5416;SDS011;2731;50.754;12.990;2022-12-07T04:56:45;6.75;;;2.90;;
5416;SDS011;2731;50.754;12.990;2022-12-07T04:59:12;4.28;;;3.13;;
5416;SDS011;2731;50.754;12.990;2022-12-07T05:01:38;4.93;;;2.78;;
5416;SDS011;2731;50.754;12.990;2022-12-07T05:04:03;4.53;;;3.03;;
5416;SDS011;2731;50.754;12.990;2022-12-07T05:06:29;5.07;;;3.08;;
5416;SDS011;2731;50.754;12.990;2022-12-07T05:08:56;5.80;;;3.47;;
5416;SDS011;2731;50.754;12.990;2022-12-07T05:11:22;6.07;;;3.95;;
5416;SDS011;2731;50.754;12.990;2022-12-07T05:14:04;7.18;;;3.10;;
5416;SDS011;2731;50.754;12.990;2022-12-07T05:16:43;5.93;;;2.92;;
5416;SDS011;2731;50.754;12.990;2022-12-07T05:19:11;4.70;;;3.15;;
5416;SDS011;2731;50.754;12.990;2022-12-07T05:21:37;5.22;;;3.08;;
5416;SDS011;2731;50.754;12.990;2022-12-07T05:24:03;6.80;;;3.25;;
5416;SDS011;2731;50.754;12.990;2022-12-07T05:26:30;4.32;;;3.00;;
5416;SDS011;2731;50.754;12.990;2022-12-07T05:28:56;5.72;;;2.92;;
5416;SDS011;2731;50.754;12.990;2022-12-07T05:31:22;4.63;;;3.33;;
5416;SDS011;2731;50.754;12.990;2022-12-07T05:33:48;6.32;;;3.97;;
5416;SDS011;2731;50.754;12.990;2022-12-07T05:36:14;5.93;;;3.72;;
5416;SDS011;2731;50.754;12.990;2022-12-07T05:38:40;7.18;;;3.88;;
5416;SDS011;2731;50.754;12.990;2022-12-07T05:41:06;8.13;;;3.88;;
5416;SDS011;2731;50.754;12.990;2022-12-07T05:43:32;5.57;;;3.58;;
5416;SDS011;2731;50.754;12.990;2022-12-07T05:45:59;6.07;;;3.78;;
5416;SDS011;2731;50.754;12.990;2022-12-07T05:48:25;13.15;;;4.28;;
5416;SDS011;2731;50.754;12.990;2022-12-07T05:50:52;6.43;;;4.43;;
5416;SDS011;2731;50.754;12.990;2022-12-07T05:53:17;6.50;;;4.35;;
5416;SDS011;2731;50.754;12.990;2022-12-07T05:55:43;5.88;;;3.65;;
5416;SDS011;2731;50.754;12.990;2022-12-07T05:58:09;7.40;;;4.55;;
5416;SDS011;2731;50.754;12.990;2022-12-07T06:00:55;6.20;;;4.10;;
5416;SDS011;2731;50.754;12.990;2022-12-07T06:03:21;10.40;;;4.57;;
5416;SDS011;2731;50.754;12.990;2022-12-07T06:05:51;6.45;;;4.32;;
5416;SDS011;2731;50.754;12.990;2022-12-07T06:08:20;7.23;;;4.60;;
5416;SDS011;2731;50.754;12.990;2022-12-07T06:10:46;7.82;;;4.63;;
5416;SDS011;2731;50.754;12.990;2022-12-07T06:13:32;8.43;;;4.88;;
5416;SDS011;2731;50.754;12.990;2022-12-07T06:15:58;7.72;;;4.75;;
5416;SDS011;2731;50.754;12.990;2022-12-07T06:18:25;9.57;;;5.20;;
5416;SDS011;2731;50.754;12.990;2022-12-07T06:20:50;7.25;;;5.10;;
5416;SDS011;2731;50.754;12.990;2022-12-07T06:23:16;9.35;;;5.65;;
5416;SDS011;2731;50.754;12.990;2022-12-07T06:25:44;9.07;;;5.40;;
5416;SDS011;2731;50.754;12.990;2022-12-07T06:28:10;8.55;;;5.18;;
5416;SDS011;2731;50.754;12.990;2022-12-07T06:30:37;8.70;;;5.97;;
5416;SDS011;2731;50.754;12.990;2022-12-07T06:33:02;8.85;;;5.78;;
5416;SDS011;2731;50.754;12.990;2022-12-07T06:35:28;8.82;;;4.88;;
5416;SDS011;2731;50.754;12.990;2022-12-07T06:37:54;8.43;;;5.55;;
5416;SDS011;2731;50.754;12.990;2022-12-07T06:40:21;7.00;;;5.10;;
5416;SDS011;2731;50.754;12.990;2022-12-07T06:42:46;7.28;;;4.72;;
5416;SDS011;2731;50.754;12.990;2022-12-07T06:45:11;7.88;;;5.15;;
5416;SDS011;2731;50.754;12.990;2022-12-07T06:47:39;7.22;;;5.10;;
5416;SDS011;2731;50.754;12.990;2022-12-07T06:50:05;8.23;;;5.53;;
5416;SDS011;2731;50.754;12.990;2022-12-07T06:52:33;5.75;;;4.55;;
5416;SDS011;2731;50.754;12.990;2022-12-07T06:55:00;7.45;;;4.75;;
5416;SDS011;2731;50.754;12.990;2022-12-07T06:57:25;8.07;;;5.45;;
5416;SDS011;2731;50.754;12.990;2022-12-07T06:59:51;10.32;;;5.95;;
5416;SDS011;2731;50.754;12.990;2022-12-07T07:02:16;8.07;;;4.90;;
5416;SDS011;2731;50.754;12.990;2022-12-07T07:04:43;9.68;;;5.60;;
5416;SDS011;2731;50.754;12.990;2022-12-07T07:07:10;10.10;;;6.07;;
5416;SDS011;2731;50.754;12.990;2022-12-07T07:09:37;9.38;;;6.13;;
5416;SDS011;2731;50.754;12.990;2022-12-07T07:12:02;8.48;;;5.57;;
5416;SDS011;2731;50.754;12.990;2022-12-07T07:14:29;9.75;;;6.00;;
5416;SDS011;2731;50.754;12.990;2022-12-07T07:16:57;11.20;;;6.28;;
5416;SDS011;2731;50.754;12.990;2022-12-07T07:19:23;10.07;;;6.75;;
5416;SDS011;2731;50.754;12.990;2022-12-07T07:21:49;10.18;;;6.90;;
5416;SDS011;2731;50.754;12.990;2022-12-07T07:24:14;14.07;;;8.60;;
5416;SDS011;2731;50.754;12.990;2022-12-07T07:26:40;14.27;;;8.43;;
5416;SDS011;2731;50.754;12.990;2022-12-07T07:29:05;12.40;;;7.80;;
5416;SDS011;2731;50.754;12.990;2022-12-07T07:31:32;11.98;;;7.30;;
5416;SDS011;2731;50.754;12.990;2022-12-07T07:34:00;12.88;;;7.68;;
5416;SDS011;2731;50.754;12.990;2022-12-07T07:36:26;11.55;;;7.78;;
5416;SDS011;2731;50.754;12.990;2022-12-07T07:38:52;12.75;;;8.13;;
5416;SDS011;2731;50.754;12.990;2022-12-07T07:41:19;14.25;;;8.68;;
5416;SDS011;2731;50.754;12.990;2022-12-07T07:43:45;15.35;;;8.38;;
5416;SDS011;2731;50.754;12.990;2022-12-07T07:46:11;15.48;;;8.32;;
5416;SDS011;2731;50.754;12.990;2022-12-07T07:48:36;14.30;;;8.60;;
5416;SDS011;2731;50.754;12.990;2022-12-07T07:51:04;14.50;;;8.70;;
5416;SDS011;2731;50.754;12.990;2022-12-07T07:53:32;13.63;;;8.32;;
5416;SDS011;2731;50.754;12.990;2022-12-07T07:55:57;13.10;;;8.45;;
5416;SDS011;2731;50.754;12.990;2022-12-07T07:58:23;13.48;;;7.43;;
5416;SDS011;2731;50.754;12.990;2022-12-07T08:00:49;12.30;;;8.50;;
5416;SDS011;2731;50.754;12.990;2022-12-07T08:03:14;14.77;;;8.68;;
5416;SDS011;2731;50.754;12.990;2022-12-07T08:05:40;13.23;;;7.95;;
5416;SDS011;2731;50.754;12.990;2022-12-07T08:08:06;12.32;;;8.60;;
5416;SDS011;2731;50.754;12.990;2022-12-07T08:10:31;12.00;;;7.82;;
5416;SDS011;2731;50.754;12.990;2022-12-07T08:12:57;12.95;;;8.27;;
5416;SDS011;2731;50.754;12.990;2022-12-07T08:15:46;11.05;;;6.90;;
5416;SDS011;2731;50.754;12.990;2022-12-07T08:18:12;11.48;;;7.18;;
5416;SDS011;2731;50.754;12.990;2022-12-07T08:20:40;13.48;;;8.23;;
5416;SDS011;2731;50.754;12.990;2022-12-07T08:23:08;12.13;;;7.80;;
5416;SDS011;2731;50.754;12.990;2022-12-07T08:25:35;12.55;;;7.78;;
5416;SDS011;2731;50.754;12.990;2022-12-07T08:28:01;14.05;;;7.45;;
5416;SDS011;2731;50.754;12.990;2022-12-07T08:30:27;10.75;;;6.40;;
5416;SDS011;2731;50.754;12.990;2022-12-07T08:32:53;11.82;;;8.02;;
5416;SDS011;2731;50.754;12.990;2022-12-07T08:35:20;11.77;;;6.90;;
5416;SDS011;2731;50.754;12.990;2022-12-07T08:37:46;9.30;;;5.72;;
5416;SDS011;2731;50.754;12.990;2022-12-07T08:40:11;13.25;;;7.20;;
5416;SDS011;2731;50.754;12.990;2022-12-07T08:42:55;10.30;;;6.43;;
5416;SDS011;2731;50.754;12.990;2022-12-07T08:45:21;9.65;;;6.20;;
5416;SDS011;2731;50.754;12.990;2022-12-07T08:47:50;12.77;;;7.45;;
5416;SDS011;2731;50.754;12.990;2022-12-07T08:50:24;9.63;;;5.60;;
5416;SDS011;2731;50.754;12.990;2022-12-07T08:52:53;9.27;;;6.07;;
5416;SDS011;2731;50.754;12.990;2022-12-07T08:55:22;11.88;;;6.35;;
5416;SDS011;2731;50.754;12.990;2022-12-07T08:57:50;11.68;;;7.07;;
5416;SDS011;2731;50.754;12.990;2022-12-07T09:00:17;9.70;;;5.80;;
5416;SDS011;2731;50.754;12.990;2022-12-07T09:02:45;9.32;;;5.80;;
5416;SDS011;2731;50.754;12.990;2022-12-07T09:05:11;10.43;;;6.80;;
5416;SDS011;2731;50.754;12.990;2022-12-07T09:07:43;10.45;;;6.20;;
5416;SDS011;2731;50.754;12.990;2022-12-07T09:10:12;9.68;;;5.95;;
5416;SDS011;2731;50.754;12.990;2022-12-07T09:12:39;12.07;;;6.68;;
5416;SDS011;2731;50.754;12.990;2022-12-07T09:15:06;9.20;;;5.50;;
5416;SDS011;2731;50.754;12.990;2022-12-07T09:17:34;8.75;;;5.40;;
5416;SDS011;2731;50.754;12.990;2022-12-07T09:20:04;10.00;;;6.43;;
5416;SDS011;2731;50.754;12.990;2022-12-07T09:22:34;9.80;;;6.13;;
5416;SDS011;2731;50.754;12.990;2022-12-07T09:25:01;11.18;;;7.40;;
5416;SDS011;2731;50.754;12.990;2022-12-07T09:27:28;12.30;;;7.25;;
5416;SDS011;2731;50.754;12.990;2022-12-07T09:29:54;11.35;;;6.20;;
5416;SDS011;2731;50.754;12.990;2022-12-07T09:32:19;8.98;;;6.00;;
5416;SDS011;2731;50.754;12.990;2022-12-07T09:34:48;8.75;;;5.78;;
5416;SDS011;2731;50.754;12.990;2022-12-07T09:37:15;8.90;;;5.93;;
5416;SDS011;2731;50.754;12.990;2022-12-07T09:39:41;8.35;;;5.53;;
5416;SDS011;2731;50.754;12.990;2022-12-07T09:42:06;8.55;;;5.80;;
5416;SDS011;2731;50.754;12.990;2022-12-07T09:44:32;11.73;;;5.85;;
5416;SDS011;2731;50.754;12.990;2022-12-07T09:47:01;8.63;;;4.95;;
5416;SDS011;2731;50.754;12.990;2022-12-07T09:49:28;10.25;;;5.65;;
5416;SDS011;2731;50.754;12.990;2022-12-07T09:54:33;8.80;;;5.43;;
5416;SDS011;2731;50.754;12.990;2022-12-07T09:57:05;9.60;;;5.47;;
5416;SDS011;2731;50.754;12.990;2022-12-07T09:59:31;10.80;;;5.88;;
5416;SDS011;2731;50.754;12.990;2022-12-07T10:01:57;10.70;;;5.35;;
5416;SDS011;2731;50.754;12.990;2022-12-07T10:05:03;9.85;;;5.55;;
5416;SDS011;2731;50.754;12.990;2022-12-07T10:07:30;10.65;;;6.38;;
5416;SDS011;2731;50.754;12.990;2022-12-07T10:09:56;9.85;;;6.80;;
5416;SDS011;2731;50.754;12.990;2022-12-07T10:12:23;8.00;;;4.80;;
5416;SDS011;2731;50.754;12.990;2022-12-07T10:14:56;9.20;;;5.15;;
5416;SDS011;2731;50.754;12.990;2022-12-07T10:20:35;9.40;;;5.40;;
5416;SDS011;2731;50.754;12.990;2022-12-07T10:23:00;9.60;;;5.22;;
5416;SDS011;2731;50.754;12.990;2022-12-07T10:25:36;10.85;;;5.57;;
5416;SDS011;2731;50.754;12.990;2022-12-07T10:30:33;11.00;;;5.43;;
5416;SDS011;2731;50.754;12.990;2022-12-07T10:33:34;10.15;;;5.53;;
5416;SDS011;2731;50.754;12.990;2022-12-07T10:36:00;7.50;;;5.20;;
5416;SDS011;2731;50.754;12.990;2022-12-07T10:38:37;9.73;;;5.07;;
5416;SDS011;2731;50.754;12.990;2022-12-07T10:41:10;9.70;;;4.57;;
5416;SDS011;2731;50.754;12.990;2022-12-07T10:43:36;8.20;;;5.20;;
5416;SDS011;2731;50.754;12.990;2022-12-07T11:02:50;8.25;;;4.72;;
5416;SDS011;2731;50.754;12.990;2022-12-07T11:11:04;9.80;;;5.45;;
5416;SDS011;2731;50.754;12.990;2022-12-07T11:19:28;5.93;;;3.80;;
5416;SDS011;2731;50.754;12.990;2022-12-07T11:22:32;7.22;;;3.53;;
5416;SDS011;2731;50.754;12.990;2022-12-07T11:36:57;7.20;;;3.95;;
5416;SDS011;2731;50.754;12.990;2022-12-07T11:39:35;7.03;;;3.95;;
5416;SDS011;2731;50.754;12.990;2022-12-07T11:42:10;7.68;;;3.70;;
5416;SDS011;2731;50.754;12.990;2022-12-07T11:44:59;7.18;;;4.35;;
5416;SDS011;2731;50.754;12.990;2022-12-07T11:47:38;9.38;;;4.78;;
5416;SDS011;2731;50.754;12.990;2022-12-07T11:50:14;7.03;;;3.70;;
5416;SDS011;2731;50.754;12.990;2022-12-07T11:53:05;6.28;;;3.88;;
5416;SDS011;2731;50.754;12.990;2022-12-07T12:03:37;5.43;;;3.05;;
5416;SDS011;2731;50.754;12.990;2022-12-07T12:06:12;6.13;;;3.63;;
5416;SDS011;2731;50.754;12.990;2022-12-07T12:09:11;6.13;;;3.30;;
5416;SDS011;2731;50.754;12.990;2022-12-07T12:14:43;6.95;;;3.40;;
5416;SDS011;2731;50.754;12.990;2022-12-07T12:20:26;5.40;;;2.83;;
5416;SDS011;2731;50.754;12.990;2022-12-07T12:31:16;6.65;;;3.58;;
5416;SDS011;2731;50.754;12.990;2022-12-07T12:34:30;4.75;;;2.83;;
5416;SDS011;2731;50.754;12.990;2022-12-07T12:40:47;4.90;;;2.72;;
5416;SDS011;2731;50.754;12.990;2022-12-07T12:42:56;6.22;;;2.95;;
5416;SDS011;2731;50.754;12.990;2022-12-07T12:45:26;5.53;;;2.30;;
5416;SDS011;2731;50.754;12.990;2022-12-07T12:50:38;4.07;;;2.30;;
5416;SDS011;2731;50.754;12.990;2022-12-07T12:53:24;4.85;;;2.35;;
5416;SDS011;2731;50.754;12.990;2022-12-07T13:01:53;7.22;;;2.65;;
5416;SDS011;2731;50.754;12.990;2022-12-07T13:04:26;3.80;;;2.20;;
5416;SDS011;2731;50.754;12.990;2022-12-07T13:06:53;4.07;;;2.45;;
5416;SDS011;2731;50.754;12.990;2022-12-07T13:09:27;6.88;;;3.17;;
5416;SDS011;2731;50.754;12.990;2022-12-07T13:11:59;6.20;;;4.18;;
5416;SDS011;2731;50.754;12.990;2022-12-07T13:20:03;3.15;;;1.77;;
5416;SDS011;2731;50.754;12.990;2022-12-07T13:23:00;4.95;;;3.00;;
5416;SDS011;2731;50.754;12.990;2022-12-07T13:28:51;5.55;;;2.67;;
5416;SDS011;2731;50.754;12.990;2022-12-07T13:31:35;8.38;;;3.20;;
5416;SDS011;2731;50.754;12.990;2022-12-07T13:37:00;7.28;;;3.08;;
5416;SDS011;2731;50.754;12.990;2022-12-07T13:39:32;4.65;;;2.20;;
5416;SDS011;2731;50.754;12.990;2022-12-07T13:41:58;5.82;;;3.10;;
5416;SDS011;2731;50.754;12.990;2022-12-07T13:44:28;4.35;;;2.13;;
5416;SDS011;2731;50.754;12.990;2022-12-07T13:49:51;2.92;;;2.17;;
5416;SDS011;2731;50.754;12.990;2022-12-07T13:52:29;7.30;;;3.35;;
5416;SDS011;2731;50.754;12.990;2022-12-07T13:55:13;7.50;;;4.07;;
5416;SDS011;2731;50.754;12.990;2022-12-07T13:57:41;6.80;;;2.67;;
